sensor_id;sensor_type;location;lat;lon;timestamp;temperature;humidity
37356;DHT22;48747;50.250;18.848;2023-04-01T00:00:27;8.60;99.90
37356;DHT22;48747;50.250;18.848;2023-04-01T00:02:30;8.60;99.90
37356;DHT22;48747;50.250;18.848;2023-04-01T00:04:33;8.50;99.90
37356;DHT22;48747;50.250;18.848;2023-04-01T00:06:36;8.50;99.90
37356;DHT22;48747;50.250;18.848;2023-04-01T00:08:39;8.50;99.90
37356;DHT22;48747;50.250;18.848;2023-04-01T00:10:42;8.50;99.90
37356;DHT22;48747;50.250;18.848;2023-04-01T00:12:45;8.40;99.90
37356;DHT22;48747;50.250;18.848;2023-04-01T00:14:48;8.40;99.90
37356;DHT22;48747;50.250;18.848;2023-04-01T00:16:52;8.30;99.90
37356;DHT22;48747;50.250;18.848;2023-04-01T00:18:55;8.30;99.90
37356;DHT22;48747;50.250;18.848;2023-04-01T00:20:58;8.30;99.90
37356;DHT22;48747;50.250;18.848;2023-04-01T00:23:01;8.30;99.90
37356;DHT22;48747;50.250;18.848;2023-04-01T00:25:04;8.30;99.90
37356;DHT22;48747;50.250;18.848;2023-04-01T00:27:08;8.30;99.90
37356;DHT22;48747;50.250;18.848;2023-04-01T00:29:11;8.40;99.90
37356;DHT22;48747;50.250;18.848;2023-04-01T00:31:14;8.40;99.90
37356;DHT22;48747;50.250;18.848;2023-04-01T00:33:18;8.40;99.90
37356;DHT22;48747;50.250;18.848;2023-04-01T00:35:22;8.50;99.90
37356;DHT22;48747;50.250;18.848;2023-04-01T00:37:26;8.50;99.90
37356;DHT22;48747;50.250;18.848;2023-04-01T00:39:30;8.40;99.90
37356;DHT22;48747;50.250;18.848;2023-04-01T00:41:33;8.30;99.90
37356;DHT22;48747;50.250;18.848;2023-04-01T00:43:37;8.30;99.90
37356;DHT22;48747;50.250;18.848;2023-04-01T00:45:42;8.20;99.90
37356;DHT22;48747;50.250;18.848;2023-04-01T00:47:45;8.10;99.90
37356;DHT22;48747;50.250;18.848;2023-04-01T00:49:51;8.10;99.90
37356;DHT22;48747;50.250;18.848;2023-04-01T00:51:56;8.00;99.90
37356;DHT22;48747;50.250;18.848;2023-04-01T00:54:00;8.00;99.90
37356;DHT22;48747;50.250;18.848;2023-04-01T00:56:12;8.00;99.90
37356;DHT22;48747;50.250;18.848;2023-04-01T00:58:17;8.10;99.90
37356;DHT22;48747;50.250;18.848;2023-04-01T01:00:22;8.00;99.90
37356;DHT22;48747;50.250;18.848;2023-04-01T01:02:25;8.10;99.90
37356;DHT22;48747;50.250;18.848;2023-04-01T01:04:30;8.10;99.90
37356;DHT22;48747;50.250;18.848;2023-04-01T01:06:54;8.10;99.90
37356;DHT22;48747;50.250;18.848;2023-04-01T01:11:14;8.10;99.90
37356;DHT22;48747;50.250;18.848;2023-04-01T01:13:53;8.20;99.90
37356;DHT22;48747;50.250;18.848;2023-04-01T01:16:00;8.20;99.90
37356;DHT22;48747;50.250;18.848;2023-04-01T01:26:59;8.30;99.90
37356;DHT22;48747;50.250;18.848;2023-04-01T01:34:11;8.30;99.90
37356;DHT22;48747;50.250;18.848;2023-04-01T01:36:13;8.30;99.90
37356;DHT22;48747;50.250;18.848;2023-04-01T01:38:21;8.20;99.90
37356;DHT22;48747;50.250;18.848;2023-04-01T01:40:26;8.20;99.90
37356;DHT22;48747;50.250;18.848;2023-04-01T01:42:32;8.20;99.90
37356;DHT22;48747;50.250;18.848;2023-04-01T01:44:37;8.20;99.90
37356;DHT22;48747;50.250;18.848;2023-04-01T01:46:42;8.20;99.90
37356;DHT22;48747;50.250;18.848;2023-04-01T01:48:47;8.20;99.90
37356;DHT22;48747;50.250;18.848;2023-04-01T01:50:53;8.10;99.90
37356;DHT22;48747;50.250;18.848;2023-04-01T01:53:07;8.10;99.90
37356;DHT22;48747;50.250;18.848;2023-04-01T01:55:31;8.10;99.90
37356;DHT22;48747;50.250;18.848;2023-04-01T01:57:36;8.20;99.90
37356;DHT22;48747;50.250;18.848;2023-04-01T01:59:42;8.10;99.90
37356;DHT22;48747;50.250;18.848;2023-04-01T02:01:53;8.20;99.90
37356;DHT22;48747;50.250;18.848;2023-04-01T02:03:53;8.20;99.90
37356;DHT22;48747;50.250;18.848;2023-04-01T02:05:59;8.20;99.90
37356;DHT22;48747;50.250;18.848;2023-04-01T02:08:12;8.20;99.90
37356;DHT22;48747;50.250;18.848;2023-04-01T02:10:15;8.20;99.90
37356;DHT22;48747;50.250;18.848;2023-04-01T02:12:19;8.30;99.90
37356;DHT22;48747;50.250;18.848;2023-04-01T02:16:42;8.30;99.90
37356;DHT22;48747;50.250;18.848;2023-04-01T02:18:46;8.30;99.90
37356;DHT22;48747;50.250;18.848;2023-04-01T02:20:51;8.30;99.90
37356;DHT22;48747;50.250;18.848;2023-04-01T02:22:56;8.40;99.90
37356;DHT22;48747;50.250;18.848;2023-04-01T02:25:10;8.40;99.90
37356;DHT22;48747;50.250;18.848;2023-04-01T02:27:10;8.40;99.90
37356;DHT22;48747;50.250;18.848;2023-04-01T02:29:14;8.40;99.90
37356;DHT22;48747;50.250;18.848;2023-04-01T02:31:18;8.30;99.90
37356;DHT22;48747;50.250;18.848;2023-04-01T02:33:21;8.40;99.90
37356;DHT22;48747;50.250;18.848;2023-04-01T02:35:25;8.30;99.90
37356;DHT22;48747;50.250;18.848;2023-04-01T02:37:28;8.40;99.90
37356;DHT22;48747;50.250;18.848;2023-04-01T02:39:31;8.40;99.90
37356;DHT22;48747;50.250;18.848;2023-04-01T02:41:42;8.40;99.90
37356;DHT22;48747;50.250;18.848;2023-04-01T02:43:46;8.40;99.90
37356;DHT22;48747;50.250;18.848;2023-04-01T02:45:49;8.40;99.90
37356;DHT22;48747;50.250;18.848;2023-04-01T02:47:52;8.40;99.90
37356;DHT22;48747;50.250;18.848;2023-04-01T02:49:55;8.40;99.90
37356;DHT22;48747;50.250;18.848;2023-04-01T02:52:00;8.40;99.90
37356;DHT22;48747;50.250;18.848;2023-04-01T02:54:03;8.40;99.90
37356;DHT22;48747;50.250;18.848;2023-04-01T02:56:06;8.40;99.90
37356;DHT22;48747;50.250;18.848;2023-04-01T02:58:09;8.40;99.90
37356;DHT22;48747;50.250;18.848;2023-04-01T03:00:13;8.40;99.90
37356;DHT22;48747;50.250;18.848;2023-04-01T03:02:17;8.40;99.90
37356;DHT22;48747;50.250;18.848;2023-04-01T03:04:20;8.50;99.90
37356;DHT22;48747;50.250;18.848;2023-04-01T03:06:23;8.40;99.90
37356;DHT22;48747;50.250;18.848;2023-04-01T03:08:26;8.40;99.90
37356;DHT22;48747;50.250;18.848;2023-04-01T03:10:29;8.50;99.90
37356;DHT22;48747;50.250;18.848;2023-04-01T03:12:32;8.40;99.90
37356;DHT22;48747;50.250;18.848;2023-04-01T03:14:35;8.40;99.90
37356;DHT22;48747;50.250;18.848;2023-04-01T03:16:38;8.40;99.90
37356;DHT22;48747;50.250;18.848;2023-04-01T03:18:41;8.50;99.90
37356;DHT22;48747;50.250;18.848;2023-04-01T03:20:45;8.40;99.90
37356;DHT22;48747;50.250;18.848;2023-04-01T03:22:49;8.40;99.90
37356;DHT22;48747;50.250;18.848;2023-04-01T03:24:52;8.40;99.90
37356;DHT22;48747;50.250;18.848;2023-04-01T03:26:55;8.40;99.90
37356;DHT22;48747;50.250;18.848;2023-04-01T03:28:58;8.40;99.90
37356;DHT22;48747;50.250;18.848;2023-04-01T03:31:01;8.40;99.90
37356;DHT22;48747;50.250;18.848;2023-04-01T03:33:05;8.30;99.90
37356;DHT22;48747;50.250;18.848;2023-04-01T03:35:08;8.30;99.90
37356;DHT22;48747;50.250;18.848;2023-04-01T03:37:12;8.30;99.90
37356;DHT22;48747;50.250;18.848;2023-04-01T03:39:15;8.30;99.90
37356;DHT22;48747;50.250;18.848;2023-04-01T03:41:20;8.30;99.90
37356;DHT22;48747;50.250;18.848;2023-04-01T03:43:23;8.30;99.90
37356;DHT22;48747;50.250;18.848;2023-04-01T03:45:27;8.30;99.90
37356;DHT22;48747;50.250;18.848;2023-04-01T03:47:30;8.30;99.90
37356;DHT22;48747;50.250;18.848;2023-04-01T03:49:33;8.30;99.90
37356;DHT22;48747;50.250;18.848;2023-04-01T03:51:37;8.30;99.90
37356;DHT22;48747;50.250;18.848;2023-04-01T03:53:41;8.30;99.90
37356;DHT22;48747;50.250;18.848;2023-04-01T03:55:44;8.30;99.90
37356;DHT22;48747;50.250;18.848;2023-04-01T03:57:47;8.30;99.90
37356;DHT22;48747;50.250;18.848;2023-04-01T03:59:50;8.30;99.90
37356;DHT22;48747;50.250;18.848;2023-04-01T04:01:53;8.30;99.90
37356;DHT22;48747;50.250;18.848;2023-04-01T04:03:56;8.30;99.90
37356;DHT22;48747;50.250;18.848;2023-04-01T04:06:00;8.30;99.90
37356;DHT22;48747;50.250;18.848;2023-04-01T04:08:03;8.30;99.90
37356;DHT22;48747;50.250;18.848;2023-04-01T04:10:07;8.30;99.90
37356;DHT22;48747;50.250;18.848;2023-04-01T04:12:10;8.30;99.90
37356;DHT22;48747;50.250;18.848;2023-04-01T04:14:13;8.30;99.90
37356;DHT22;48747;50.250;18.848;2023-04-01T04:16:17;8.30;99.90
37356;DHT22;48747;50.250;18.848;2023-04-01T04:18:20;8.30;99.90
37356;DHT22;48747;50.250;18.848;2023-04-01T04:20:23;8.40;99.90
37356;DHT22;48747;50.250;18.848;2023-04-01T04:22:29;8.40;99.90
37356;DHT22;48747;50.250;18.848;2023-04-01T04:24:33;8.40;99.90
37356;DHT22;48747;50.250;18.848;2023-04-01T04:26:37;8.40;99.90
37356;DHT22;48747;50.250;18.848;2023-04-01T04:28:40;8.50;99.90
37356;DHT22;48747;50.250;18.848;2023-04-01T04:30:43;8.50;99.90
37356;DHT22;48747;50.250;18.848;2023-04-01T04:32:46;8.50;99.90
37356;DHT22;48747;50.250;18.848;2023-04-01T04:34:49;8.50;99.90
37356;DHT22;48747;50.250;18.848;2023-04-01T04:36:52;8.50;99.90
37356;DHT22;48747;50.250;18.848;2023-04-01T04:38:55;8.50;99.90
37356;DHT22;48747;50.250;18.848;2023-04-01T04:41:00;8.50;99.90
37356;DHT22;48747;50.250;18.848;2023-04-01T04:43:03;8.50;99.90
37356;DHT22;48747;50.250;18.848;2023-04-01T04:45:07;8.50;99.90
37356;DHT22;48747;50.250;18.848;2023-04-01T04:47:10;8.50;99.90
37356;DHT22;48747;50.250;18.848;2023-04-01T04:49:13;8.50;99.90
37356;DHT22;48747;50.250;18.848;2023-04-01T04:51:17;8.60;99.90
37356;DHT22;48747;50.250;18.848;2023-04-01T04:53:21;8.60;99.90
37356;DHT22;48747;50.250;18.848;2023-04-01T04:55:24;8.60;99.90
37356;DHT22;48747;50.250;18.848;2023-04-01T04:57:27;8.70;99.90
37356;DHT22;48747;50.250;18.848;2023-04-01T04:59:31;8.70;99.90
37356;DHT22;48747;50.250;18.848;2023-04-01T05:01:34;8.70;99.90
37356;DHT22;48747;50.250;18.848;2023-04-01T05:03:38;8.70;99.90
37356;DHT22;48747;50.250;18.848;2023-04-01T05:05:48;8.80;99.90
37356;DHT22;48747;50.250;18.848;2023-04-01T05:07:47;8.80;99.90
37356;DHT22;48747;50.250;18.848;2023-04-01T05:09:50;8.90;99.90
37356;DHT22;48747;50.250;18.848;2023-04-01T05:11:53;8.90;99.90
37356;DHT22;48747;50.250;18.848;2023-04-01T05:13:56;8.90;99.90
37356;DHT22;48747;50.250;18.848;2023-04-01T05:15:59;9.00;99.90
37356;DHT22;48747;50.250;18.848;2023-04-01T05:18:02;9.00;99.90
37356;DHT22;48747;50.250;18.848;2023-04-01T05:20:06;9.00;99.90
37356;DHT22;48747;50.250;18.848;2023-04-01T05:22:10;9.00;99.90
37356;DHT22;48747;50.250;18.848;2023-04-01T05:24:13;9.10;99.90
37356;DHT22;48747;50.250;18.848;2023-04-01T05:26:16;9.10;99.90
37356;DHT22;48747;50.250;18.848;2023-04-01T05:28:19;9.10;99.90
37356;DHT22;48747;50.250;18.848;2023-04-01T05:30:23;9.10;99.90
37356;DHT22;48747;50.250;18.848;2023-04-01T05:32:26;9.10;99.90
37356;DHT22;48747;50.250;18.848;2023-04-01T05:34:29;9.10;99.90
37356;DHT22;48747;50.250;18.848;2023-04-01T05:36:32;9.10;99.90
37356;DHT22;48747;50.250;18.848;2023-04-01T05:38:35;9.10;99.90
37356;DHT22;48747;50.250;18.848;2023-04-01T05:40:38;9.10;99.90
37356;DHT22;48747;50.250;18.848;2023-04-01T05:42:41;9.10;99.90
37356;DHT22;48747;50.250;18.848;2023-04-01T05:44:44;9.10;99.90
37356;DHT22;48747;50.250;18.848;2023-04-01T05:46:47;9.10;99.90
37356;DHT22;48747;50.250;18.848;2023-04-01T05:48:50;9.10;99.90
37356;DHT22;48747;50.250;18.848;2023-04-01T05:50:53;9.10;99.90
37356;DHT22;48747;50.250;18.848;2023-04-01T05:52:56;9.10;99.90
37356;DHT22;48747;50.250;18.848;2023-04-01T05:54:59;9.10;99.90
37356;DHT22;48747;50.250;18.848;2023-04-01T05:57:02;9.10;99.90
37356;DHT22;48747;50.250;18.848;2023-04-01T05:59:05;9.10;99.90
37356;DHT22;48747;50.250;18.848;2023-04-01T06:01:10;9.10;99.90
37356;DHT22;48747;50.250;18.848;2023-04-01T06:03:14;9.10;99.90
37356;DHT22;48747;50.250;18.848;2023-04-01T06:05:35;9.20;99.90
37356;DHT22;48747;50.250;18.848;2023-04-01T06:07:31;9.20;99.90
37356;DHT22;48747;50.250;18.848;2023-04-01T06:09:35;9.20;99.90
37356;DHT22;48747;50.250;18.848;2023-04-01T06:16:32;9.20;99.90
37356;DHT22;48747;50.250;18.848;2023-04-01T06:23:31;9.40;99.90
37356;DHT22;48747;50.250;18.848;2023-04-01T06:26:01;9.40;99.90
37356;DHT22;48747;50.250;18.848;2023-04-01T06:38:17;9.60;99.90
37356;DHT22;48747;50.250;18.848;2023-04-01T06:51:35;9.80;99.90
37356;DHT22;48747;50.250;18.848;2023-04-01T06:56:21;9.80;99.90
37356;DHT22;48747;50.250;18.848;2023-04-01T06:58:23;9.80;99.90
37356;DHT22;48747;50.250;18.848;2023-04-01T07:00:41;9.80;99.90
37356;DHT22;48747;50.250;18.848;2023-04-01T07:02:50;9.80;99.90
37356;DHT22;48747;50.250;18.848;2023-04-01T07:04:56;9.80;99.90
37356;DHT22;48747;50.250;18.848;2023-04-01T07:07:04;9.90;99.90
37356;DHT22;48747;50.250;18.848;2023-04-01T07:09:18;9.90;99.90
37356;DHT22;48747;50.250;18.848;2023-04-01T07:11:29;10.00;99.90
37356;DHT22;48747;50.250;18.848;2023-04-01T07:13:39;10.00;99.90
37356;DHT22;48747;50.250;18.848;2023-04-01T07:15:43;10.10;99.90
37356;DHT22;48747;50.250;18.848;2023-04-01T07:17:52;10.20;99.90
37356;DHT22;48747;50.250;18.848;2023-04-01T07:20:05;10.20;99.90
37356;DHT22;48747;50.250;18.848;2023-04-01T07:24:29;10.00;99.90
37356;DHT22;48747;50.250;18.848;2023-04-01T07:26:32;9.90;99.90
37356;DHT22;48747;50.250;18.848;2023-04-01T07:28:35;9.80;99.90
37356;DHT22;48747;50.250;18.848;2023-04-01T07:30:51;9.80;99.90
37356;DHT22;48747;50.250;18.848;2023-04-01T07:33:03;9.80;99.90
37356;DHT22;48747;50.250;18.848;2023-04-01T07:37:27;9.80;99.90
37356;DHT22;48747;50.250;18.848;2023-04-01T07:39:45;9.70;99.90
37356;DHT22;48747;50.250;18.848;2023-04-01T07:46:38;10.00;99.90
37356;DHT22;48747;50.250;18.848;2023-04-01T07:49:06;10.30;99.90
37356;DHT22;48747;50.250;18.848;2023-04-01T07:51:21;10.60;99.90
37356;DHT22;48747;50.250;18.848;2023-04-01T07:55:48;10.80;99.90
37356;DHT22;48747;50.250;18.848;2023-04-01T08:02:21;11.00;99.90
37356;DHT22;48747;50.250;18.848;2023-04-01T08:04:23;11.10;99.90
37356;DHT22;48747;50.250;18.848;2023-04-01T08:09:21;11.10;99.90
37356;DHT22;48747;50.250;18.848;2023-04-01T08:13:53;11.10;99.90
37356;DHT22;48747;50.250;18.848;2023-04-01T08:16:03;11.10;99.90
37356;DHT22;48747;50.250;18.848;2023-04-01T08:18:22;11.10;99.90
37356;DHT22;48747;50.250;18.848;2023-04-01T08:20:32;11.10;99.90
37356;DHT22;48747;50.250;18.848;2023-04-01T08:22:57;11.00;99.90
37356;DHT22;48747;50.250;18.848;2023-04-01T08:24:56;11.00;99.90
37356;DHT22;48747;50.250;18.848;2023-04-01T08:27:05;11.10;99.90
37356;DHT22;48747;50.250;18.848;2023-04-01T08:29:23;11.10;99.90
37356;DHT22;48747;50.250;18.848;2023-04-01T08:31:20;11.10;99.90
37356;DHT22;48747;50.250;18.848;2023-04-01T08:33:28;11.10;99.90
37356;DHT22;48747;50.250;18.848;2023-04-01T08:35:46;10.90;99.90
37356;DHT22;48747;50.250;18.848;2023-04-01T08:37:48;10.80;99.90
37356;DHT22;48747;50.250;18.848;2023-04-01T08:40:00;10.70;99.90
37356;DHT22;48747;50.250;18.848;2023-04-01T08:47:05;10.70;99.90
37356;DHT22;48747;50.250;18.848;2023-04-01T08:52:21;10.60;99.90
37356;DHT22;48747;50.250;18.848;2023-04-01T08:57:24;10.60;99.90
37356;DHT22;48747;50.250;18.848;2023-04-01T09:06:29;11.30;99.90
37356;DHT22;48747;50.250;18.848;2023-04-01T09:11:16;11.50;99.90
37356;DHT22;48747;50.250;18.848;2023-04-01T09:13:29;11.50;99.90
37356;DHT22;48747;50.250;18.848;2023-04-01T09:18:34;11.30;99.90
37356;DHT22;48747;50.250;18.848;2023-04-01T09:25:43;11.00;99.90
37356;DHT22;48747;50.250;18.848;2023-04-01T09:28:18;11.00;99.90
37356;DHT22;48747;50.250;18.848;2023-04-01T09:40:37;12.20;99.90
37356;DHT22;48747;50.250;18.848;2023-04-01T09:44:58;12.60;99.90
37356;DHT22;48747;50.250;18.848;2023-04-01T09:47:39;12.70;99.90
37356;DHT22;48747;50.250;18.848;2023-04-01T09:57:45;12.50;99.90
37356;DHT22;48747;50.250;18.848;2023-04-01T10:00:03;12.60;99.90
37356;DHT22;48747;50.250;18.848;2023-04-01T10:02:18;12.60;99.90
37356;DHT22;48747;50.250;18.848;2023-04-01T10:06:51;12.30;99.90
37356;DHT22;48747;50.250;18.848;2023-04-01T10:09:12;12.00;99.90
37356;DHT22;48747;50.250;18.848;2023-04-01T10:13:32;11.40;99.90
37356;DHT22;48747;50.250;18.848;2023-04-01T10:15:46;11.20;99.90
37356;DHT22;48747;50.250;18.848;2023-04-01T10:20:26;11.10;99.90
37356;DHT22;48747;50.250;18.848;2023-04-01T10:22:37;11.30;99.90
37356;DHT22;48747;50.250;18.848;2023-04-01T10:29:45;11.90;99.90
37356;DHT22;48747;50.250;18.848;2023-04-01T10:37:15;12.90;99.90
37356;DHT22;48747;50.250;18.848;2023-04-01T10:39:45;12.80;99.90
37356;DHT22;48747;50.250;18.848;2023-04-01T10:42:01;12.60;99.90
37356;DHT22;48747;50.250;18.848;2023-04-01T10:44:34;12.40;99.90
37356;DHT22;48747;50.250;18.848;2023-04-01T10:58:43;12.00;99.90
37356;DHT22;48747;50.250;18.848;2023-04-01T11:03:44;12.30;99.90
37356;DHT22;48747;50.250;18.848;2023-04-01T11:06:03;12.50;99.90
37356;DHT22;48747;50.250;18.848;2023-04-01T11:10:47;12.60;99.90
37356;DHT22;48747;50.250;18.848;2023-04-01T11:22:46;12.70;99.90
37356;DHT22;48747;50.250;18.848;2023-04-01T11:29:57;13.20;99.90
37356;DHT22;48747;50.250;18.848;2023-04-01T11:32:19;13.20;99.90
37356;DHT22;48747;50.250;18.848;2023-04-01T11:34:42;13.00;99.90
37356;DHT22;48747;50.250;18.848;2023-04-01T11:46:15;12.60;99.90
37356;DHT22;48747;50.250;18.848;2023-04-01T11:51:19;13.10;99.90
37356;DHT22;48747;50.250;18.848;2023-04-01T12:05:07;13.40;99.90
37356;DHT22;48747;50.250;18.848;2023-04-01T12:11:44;12.80;99.90
37356;DHT22;48747;50.250;18.848;2023-04-01T12:14:01;12.80;99.90
37356;DHT22;48747;50.250;18.848;2023-04-01T12:21:08;12.90;99.90
37356;DHT22;48747;50.250;18.848;2023-04-01T12:23:10;13.00;99.90
37356;DHT22;48747;50.250;18.848;2023-04-01T12:25:27;13.10;99.90
37356;DHT22;48747;50.250;18.848;2023-04-01T12:32:25;13.40;99.90
37356;DHT22;48747;50.250;18.848;2023-04-01T12:41:59;13.50;99.90
37356;DHT22;48747;50.250;18.848;2023-04-01T12:49:03;13.20;99.90
37356;DHT22;48747;50.250;18.848;2023-04-01T12:51:29;13.10;99.90
37356;DHT22;48747;50.250;18.848;2023-04-01T12:53:46;13.00;99.90
37356;DHT22;48747;50.250;18.848;2023-04-01T12:56:00;13.00;99.90
37356;DHT22;48747;50.250;18.848;2023-04-01T13:05:51;12.80;99.90
37356;DHT22;48747;50.250;18.848;2023-04-01T13:08:04;12.70;99.90
37356;DHT22;48747;50.250;18.848;2023-04-01T13:10:27;12.60;99.90
37356;DHT22;48747;50.250;18.848;2023-04-01T13:17:07;12.50;99.90
37356;DHT22;48747;50.250;18.848;2023-04-01T13:19:22;12.40;99.90
37356;DHT22;48747;50.250;18.848;2023-04-01T13:24:20;12.40;99.90
37356;DHT22;48747;50.250;18.848;2023-04-01T13:27:14;12.40;99.90
37356;DHT22;48747;50.250;18.848;2023-04-01T13:28:54;12.30;99.90
37356;DHT22;48747;50.250;18.848;2023-04-01T13:33:35;12.10;99.90
37356;DHT22;48747;50.250;18.848;2023-04-01T13:40:26;11.80;99.90
37356;DHT22;48747;50.250;18.848;2023-04-01T13:42:33;11.70;99.90
37356;DHT22;48747;50.250;18.848;2023-04-01T13:44:38;11.70;99.90
37356;DHT22;48747;50.250;18.848;2023-04-01T13:49:34;12.00;99.90
37356;DHT22;48747;50.250;18.848;2023-04-01T13:54:39;12.30;99.90
37356;DHT22;48747;50.250;18.848;2023-04-01T13:57:05;12.40;99.90
37356;DHT22;48747;50.250;18.848;2023-04-01T14:08:58;12.60;99.90
37356;DHT22;48747;50.250;18.848;2023-04-01T14:11:24;12.50;99.90
37356;DHT22;48747;50.250;18.848;2023-04-01T14:13:15;12.40;99.90
37356;DHT22;48747;50.250;18.848;2023-04-01T14:17:43;12.20;99.90
37356;DHT22;48747;50.250;18.848;2023-04-01T14:20:19;12.10;99.90
37356;DHT22;48747;50.250;18.848;2023-04-01T14:29:33;11.40;99.90
37356;DHT22;48747;50.250;18.848;2023-04-01T14:39:06;11.00;99.90
37356;DHT22;48747;50.250;18.848;2023-04-01T14:41:20;11.00;99.90
37356;DHT22;48747;50.250;18.848;2023-04-01T14:48:30;11.20;99.90
37356;DHT22;48747;50.250;18.848;2023-04-01T14:50:46;11.30;99.90
37356;DHT22;48747;50.250;18.848;2023-04-01T14:52:58;11.50;99.90
37356;DHT22;48747;50.250;18.848;2023-04-01T14:57:16;11.70;99.90
37356;DHT22;48747;50.250;18.848;2023-04-01T14:59:26;11.80;99.90
37356;DHT22;48747;50.250;18.848;2023-04-01T15:01:49;11.70;99.90
37356;DHT22;48747;50.250;18.848;2023-04-01T15:08:20;11.70;99.90
37356;DHT22;48747;50.250;18.848;2023-04-01T15:15:44;11.70;99.90
37356;DHT22;48747;50.250;18.848;2023-04-01T15:17:18;11.70;99.90
37356;DHT22;48747;50.250;18.848;2023-04-01T15:24:16;11.50;99.90
37356;DHT22;48747;50.250;18.848;2023-04-01T15:28:39;11.20;99.90
37356;DHT22;48747;50.250;18.848;2023-04-01T15:33:13;11.10;99.90
37356;DHT22;48747;50.250;18.848;2023-04-01T15:46:58;10.70;99.90
37356;DHT22;48747;50.250;18.848;2023-04-01T15:53:30;10.60;99.90
37356;DHT22;48747;50.250;18.848;2023-04-01T15:55:42;10.50;99.90
37356;DHT22;48747;50.250;18.848;2023-04-01T16:00:57;10.40;99.90
37356;DHT22;48747;50.250;18.848;2023-04-01T16:02:28;10.40;99.90
37356;DHT22;48747;50.250;18.848;2023-04-01T16:07:02;10.20;99.90
37356;DHT22;48747;50.250;18.848;2023-04-01T16:09:07;10.20;99.90
37356;DHT22;48747;50.250;18.848;2023-04-01T16:11:43;10.20;99.90
37356;DHT22;48747;50.250;18.848;2023-04-01T16:14:22;10.20;99.90
37356;DHT22;48747;50.250;18.848;2023-04-01T16:19:17;10.10;99.90
37356;DHT22;48747;50.250;18.848;2023-04-01T16:21:02;10.00;99.90
37356;DHT22;48747;50.250;18.848;2023-04-01T16:23:12;10.00;99.90
37356;DHT22;48747;50.250;18.848;2023-04-01T16:25:33;9.90;99.90
37356;DHT22;48747;50.250;18.848;2023-04-01T16:27:44;9.90;99.90
37356;DHT22;48747;50.250;18.848;2023-04-01T16:30:10;9.90;99.90
37356;DHT22;48747;50.250;18.848;2023-04-01T16:32:21;9.90;99.90
37356;DHT22;48747;50.250;18.848;2023-04-01T16:36:45;9.90;99.90
37356;DHT22;48747;50.250;18.848;2023-04-01T16:41:35;9.90;99.90
37356;DHT22;48747;50.250;18.848;2023-04-01T16:46:43;9.80;99.90
37356;DHT22;48747;50.250;18.848;2023-04-01T16:48:15;9.80;99.90
37356;DHT22;48747;50.250;18.848;2023-04-01T16:50:28;9.70;99.90
37356;DHT22;48747;50.250;18.848;2023-04-01T16:54:55;9.70;99.90
37356;DHT22;48747;50.250;18.848;2023-04-01T16:59:21;9.70;99.90
37356;DHT22;48747;50.250;18.848;2023-04-01T17:03:57;9.60;99.90
37356;DHT22;48747;50.250;18.848;2023-04-01T17:10:51;9.60;99.90
37356;DHT22;48747;50.250;18.848;2023-04-01T17:15:28;9.50;99.90
37356;DHT22;48747;50.250;18.848;2023-04-01T17:22:34;9.50;99.90
37356;DHT22;48747;50.250;18.848;2023-04-01T17:29:59;9.50;99.90
37356;DHT22;48747;50.250;18.848;2023-04-01T17:32:26;9.40;99.90
37356;DHT22;48747;50.250;18.848;2023-04-01T17:35:11;9.40;99.90
37356;DHT22;48747;50.250;18.848;2023-04-01T17:39:29;9.40;99.90
37356;DHT22;48747;50.250;18.848;2023-04-01T17:44:21;9.40;99.90
37356;DHT22;48747;50.250;18.848;2023-04-01T17:51:23;9.40;99.90
37356;DHT22;48747;50.250;18.848;2023-04-01T17:55:46;9.30;99.90
37356;DHT22;48747;50.250;18.848;2023-04-01T18:05:22;9.30;99.90
37356;DHT22;48747;50.250;18.848;2023-04-01T18:12:16;9.20;99.90
37356;DHT22;48747;50.250;18.848;2023-04-01T18:19:00;9.10;99.90
37356;DHT22;48747;50.250;18.848;2023-04-01T18:21:22;9.10;99.90
37356;DHT22;48747;50.250;18.848;2023-04-01T18:23:55;9.00;99.90
37356;DHT22;48747;50.250;18.848;2023-04-01T18:26:02;9.00;99.90
37356;DHT22;48747;50.250;18.848;2023-04-01T18:28:22;9.00;99.90
37356;DHT22;48747;50.250;18.848;2023-04-01T18:30:28;8.90;99.90
37356;DHT22;48747;50.250;18.848;2023-04-01T18:32:37;8.90;99.90
37356;DHT22;48747;50.250;18.848;2023-04-01T18:34:58;8.90;99.90
37356;DHT22;48747;50.250;18.848;2023-04-01T18:37:12;8.80;99.90
37356;DHT22;48747;50.250;18.848;2023-04-01T18:39:33;8.80;99.90
37356;DHT22;48747;50.250;18.848;2023-04-01T18:41:59;8.80;99.90
37356;DHT22;48747;50.250;18.848;2023-04-01T18:44:34;8.90;99.90
37356;DHT22;48747;50.250;18.848;2023-04-01T18:47:12;8.90;99.90
37356;DHT22;48747;50.250;18.848;2023-04-01T18:49:25;8.90;99.90
37356;DHT22;48747;50.250;18.848;2023-04-01T18:54:12;8.90;99.90
37356;DHT22;48747;50.250;18.848;2023-04-01T18:56:38;8.90;99.90
37356;DHT22;48747;50.250;18.848;2023-04-01T19:00:47;8.90;99.90
37356;DHT22;48747;50.250;18.848;2023-04-01T19:05:04;9.00;99.90
37356;DHT22;48747;50.250;18.848;2023-04-01T19:09:49;9.00;99.90
37356;DHT22;48747;50.250;18.848;2023-04-01T19:14:03;9.00;99.90
37356;DHT22;48747;50.250;18.848;2023-04-01T19:16:36;8.90;99.90
37356;DHT22;48747;50.250;18.848;2023-04-01T19:20:49;8.80;99.90
37356;DHT22;48747;50.250;18.848;2023-04-01T19:25:38;8.90;99.90
37356;DHT22;48747;50.250;18.848;2023-04-01T19:29:56;8.90;99.90
37356;DHT22;48747;50.250;18.848;2023-04-01T19:34:50;8.80;99.90
37356;DHT22;48747;50.250;18.848;2023-04-01T19:36:58;8.80;99.90
37356;DHT22;48747;50.250;18.848;2023-04-01T19:39:17;8.80;99.90
37356;DHT22;48747;50.250;18.848;2023-04-01T19:43:49;8.80;99.90
37356;DHT22;48747;50.250;18.848;2023-04-01T19:48:39;8.80;99.90
37356;DHT22;48747;50.250;18.848;2023-04-01T19:50:46;8.90;99.90
37356;DHT22;48747;50.250;18.848;2023-04-01T19:52:48;8.90;99.90
37356;DHT22;48747;50.250;18.848;2023-04-01T19:59:55;8.90;99.90
37356;DHT22;48747;50.250;18.848;2023-04-01T20:02:14;8.90;99.90
37356;DHT22;48747;50.250;18.848;2023-04-01T20:04:13;9.00;99.90
37356;DHT22;48747;50.250;18.848;2023-04-01T20:06:39;9.00;99.90
37356;DHT22;48747;50.250;18.848;2023-04-01T20:09:07;8.90;99.90
37356;DHT22;48747;50.250;18.848;2023-04-01T20:11:22;9.00;99.90
37356;DHT22;48747;50.250;18.848;2023-04-01T20:14:26;8.90;99.90
37356;DHT22;48747;50.250;18.848;2023-04-01T20:15:46;8.90;99.90
37356;DHT22;48747;50.250;18.848;2023-04-01T20:17:51;8.90;99.90
37356;DHT22;48747;50.250;18.848;2023-04-01T20:20:01;8.90;99.90
37356;DHT22;48747;50.250;18.848;2023-04-01T20:22:20;8.90;99.90
37356;DHT22;48747;50.250;18.848;2023-04-01T20:24:42;8.90;99.90
37356;DHT22;48747;50.250;18.848;2023-04-01T20:26:51;8.90;99.90